sensor_id;sensor_type;location;lat;lon;timestamp;P1;durP1;ratioP1;P2;durP2;ratioP2
58101;SDS011;52034;51.926;6.320;2022-12-07T00:00:34;22.70;;;18.27;;
58101;SDS011;52034;51.926;6.320;2022-12-07T00:01:38;22.03;;;17.07;;
58101;SDS011;52034;51.926;6.320;2022-12-07T00:02:40;21.45;;;17.45;;
58101;SDS011;52034;51.926;6.320;2022-12-07T00:03:41;22.70;;;17.67;;
58101;SDS011;52034;51.926;6.320;2022-12-07T00:04:43;22.30;;;17.45;;
58101;SDS011;52034;51.926;6.320;2022-12-07T00:05:43;20.27;;;17.83;;
58101;SDS011;52034;51.926;6.320;2022-12-07T00:06:44;22.40;;;17.57;;
58101;SDS011;52034;51.926;6.320;2022-12-07T00:07:46;20.95;;;17.50;;
58101;SDS011;52034;51.926;6.320;2022-12-07T00:08:47;20.33;;;16.40;;
58101;SDS011;52034;51.926;6.320;2022-12-07T00:09:47;19.15;;;16.67;;
58101;SDS011;52034;51.926;6.320;2022-12-07T00:10:48;22.70;;;17.20;;
58101;SDS011;52034;51.926;6.320;2022-12-07T00:11:49;20.60;;;16.50;;
58101;SDS011;52034;51.926;6.320;2022-12-07T00:12:51;22.35;;;17.38;;
58101;SDS011;52034;51.926;6.320;2022-12-07T00:13:52;20.90;;;16.43;;
58101;SDS011;52034;51.926;6.320;2022-12-07T00:14:57;19.95;;;16.77;;
58101;SDS011;52034;51.926;6.320;2022-12-07T00:16:04;21.70;;;17.73;;
58101;SDS011;52034;51.926;6.320;2022-12-07T00:17:06;20.83;;;16.90;;
58101;SDS011;52034;51.926;6.320;2022-12-07T00:18:06;22.40;;;17.10;;
58101;SDS011;52034;51.926;6.320;2022-12-07T00:19:07;23.20;;;16.43;;
58101;SDS011;52034;51.926;6.320;2022-12-07T00:20:07;23.67;;;17.07;;
58101;SDS011;52034;51.926;6.320;2022-12-07T00:22:21;20.73;;;16.60;;
58101;SDS011;52034;51.926;6.320;2022-12-07T00:23:22;21.53;;;16.10;;
58101;SDS011;52034;51.926;6.320;2022-12-07T00:24:22;22.17;;;17.40;;
58101;SDS011;52034;51.926;6.320;2022-12-07T00:25:22;22.50;;;15.83;;
58101;SDS011;52034;51.926;6.320;2022-12-07T00:26:24;19.33;;;15.20;;
58101;SDS011;52034;51.926;6.320;2022-12-07T00:27:26;20.33;;;15.82;;
58101;SDS011;52034;51.926;6.320;2022-12-07T00:28:27;23.65;;;15.93;;
58101;SDS011;52034;51.926;6.320;2022-12-07T00:29:27;20.90;;;16.27;;
58101;SDS011;52034;51.926;6.320;2022-12-07T00:30:28;18.43;;;14.63;;
58101;SDS011;52034;51.926;6.320;2022-12-07T00:31:30;22.10;;;15.60;;
58101;SDS011;52034;51.926;6.320;2022-12-07T00:32:34;23.10;;;15.20;;
58101;SDS011;52034;51.926;6.320;2022-12-07T00:33:35;18.87;;;15.50;;
58101;SDS011;52034;51.926;6.320;2022-12-07T00:34:36;18.20;;;14.27;;
58101;SDS011;52034;51.926;6.320;2022-12-07T00:35:37;18.93;;;14.83;;
58101;SDS011;52034;51.926;6.320;2022-12-07T00:36:37;18.30;;;14.57;;
58101;SDS011;52034;51.926;6.320;2022-12-07T00:37:37;20.40;;;15.47;;
58101;SDS011;52034;51.926;6.320;2022-12-07T00:38:38;19.30;;;15.40;;
58101;SDS011;52034;51.926;6.320;2022-12-07T00:39:39;19.20;;;15.10;;
58101;SDS011;52034;51.926;6.320;2022-12-07T00:40:39;17.73;;;14.60;;
58101;SDS011;52034;51.926;6.320;2022-12-07T00:41:39;17.60;;;14.70;;
58101;SDS011;52034;51.926;6.320;2022-12-07T00:42:40;21.73;;;14.07;;
58101;SDS011;52034;51.926;6.320;2022-12-07T00:43:40;19.97;;;13.43;;
58101;SDS011;52034;51.926;6.320;2022-12-07T00:44:42;17.95;;;14.07;;
58101;SDS011;52034;51.926;6.320;2022-12-07T00:45:42;15.40;;;13.53;;
58101;SDS011;52034;51.926;6.320;2022-12-07T00:46:42;15.83;;;13.70;;
58101;SDS011;52034;51.926;6.320;2022-12-07T00:47:45;18.27;;;14.00;;
58101;SDS011;52034;51.926;6.320;2022-12-07T00:48:46;16.63;;;13.20;;
58101;SDS011;52034;51.926;6.320;2022-12-07T00:49:46;14.50;;;13.00;;
58101;SDS011;52034;51.926;6.320;2022-12-07T00:50:47;17.70;;;13.27;;
58101;SDS011;52034;51.926;6.320;2022-12-07T00:51:48;18.27;;;13.55;;
58101;SDS011;52034;51.926;6.320;2022-12-07T00:52:49;16.55;;;13.85;;
58101;SDS011;52034;51.926;6.320;2022-12-07T00:53:49;15.30;;;12.73;;
58101;SDS011;52034;51.926;6.320;2022-12-07T00:54:50;16.33;;;12.83;;
58101;SDS011;52034;51.926;6.320;2022-12-07T00:55:50;14.20;;;12.67;;
58101;SDS011;52034;51.926;6.320;2022-12-07T00:56:52;15.73;;;11.80;;
58101;SDS011;52034;51.926;6.320;2022-12-07T00:57:52;14.43;;;12.23;;
58101;SDS011;52034;51.926;6.320;2022-12-07T00:58:54;13.47;;;12.07;;
58101;SDS011;52034;51.926;6.320;2022-12-07T00:59:56;19.70;;;12.60;;
58101;SDS011;52034;51.926;6.320;2022-12-07T01:00:59;18.70;;;12.48;;
58101;SDS011;52034;51.926;6.320;2022-12-07T01:02:01;15.30;;;12.30;;
58101;SDS011;52034;51.926;6.320;2022-12-07T01:03:01;14.43;;;11.97;;
58101;SDS011;52034;51.926;6.320;2022-12-07T01:04:02;13.63;;;11.17;;
58101;SDS011;52034;51.926;6.320;2022-12-07T01:05:03;13.93;;;11.15;;
58101;SDS011;52034;51.926;6.320;2022-12-07T01:06:03;17.23;;;11.87;;
58101;SDS011;52034;51.926;6.320;2022-12-07T01:07:04;14.87;;;11.47;;
58101;SDS011;52034;51.926;6.320;2022-12-07T01:08:04;12.30;;;10.83;;
58101;SDS011;52034;51.926;6.320;2022-12-07T01:09:05;15.27;;;11.10;;
58101;SDS011;52034;51.926;6.320;2022-12-07T01:10:06;13.70;;;11.70;;
58101;SDS011;52034;51.926;6.320;2022-12-07T01:11:07;12.90;;;10.70;;
58101;SDS011;52034;51.926;6.320;2022-12-07T01:12:09;12.70;;;10.68;;
58101;SDS011;52034;51.926;6.320;2022-12-07T01:13:09;18.27;;;11.47;;
58101;SDS011;52034;51.926;6.320;2022-12-07T01:14:10;15.77;;;10.80;;
58101;SDS011;52034;51.926;6.320;2022-12-07T01:15:10;14.53;;;10.17;;
58101;SDS011;52034;51.926;6.320;2022-12-07T01:16:12;12.90;;;10.93;;
58101;SDS011;52034;51.926;6.320;2022-12-07T01:17:14;15.10;;;10.48;;
58101;SDS011;52034;51.926;6.320;2022-12-07T01:18:14;11.60;;;10.40;;
58101;SDS011;52034;51.926;6.320;2022-12-07T01:19:15;14.03;;;10.83;;
58101;SDS011;52034;51.926;6.320;2022-12-07T01:20:15;12.13;;;10.33;;
58101;SDS011;52034;51.926;6.320;2022-12-07T01:21:20;13.13;;;10.10;;
58101;SDS011;52034;51.926;6.320;2022-12-07T01:22:25;11.80;;;10.23;;
58101;SDS011;52034;51.926;6.320;2022-12-07T01:23:25;11.27;;;9.80;;
58101;SDS011;52034;51.926;6.320;2022-12-07T01:24:26;14.90;;;10.90;;
58101;SDS011;52034;51.926;6.320;2022-12-07T01:25:26;13.33;;;10.13;;
58101;SDS011;52034;51.926;6.320;2022-12-07T01:26:27;13.50;;;10.17;;
58101;SDS011;52034;51.926;6.320;2022-12-07T01:27:27;12.23;;;10.40;;
58101;SDS011;52034;51.926;6.320;2022-12-07T01:28:28;11.57;;;9.97;;
58101;SDS011;52034;51.926;6.320;2022-12-07T01:29:28;12.45;;;9.93;;
58101;SDS011;52034;51.926;6.320;2022-12-07T01:30:29;13.87;;;9.80;;
58101;SDS011;52034;51.926;6.320;2022-12-07T01:31:29;13.40;;;9.70;;
58101;SDS011;52034;51.926;6.320;2022-12-07T01:32:30;12.30;;;10.63;;
58101;SDS011;52034;51.926;6.320;2022-12-07T01:33:32;15.57;;;10.17;;
58101;SDS011;52034;51.926;6.320;2022-12-07T01:34:34;15.73;;;10.25;;
58101;SDS011;52034;51.926;6.320;2022-12-07T01:35:34;11.43;;;10.00;;
58101;SDS011;52034;51.926;6.320;2022-12-07T01:36:35;12.60;;;10.27;;
58101;SDS011;52034;51.926;6.320;2022-12-07T01:37:36;13.20;;;10.13;;
58101;SDS011;52034;51.926;6.320;2022-12-07T01:38:37;11.10;;;9.55;;
58101;SDS011;52034;51.926;6.320;2022-12-07T01:39:38;11.90;;;9.57;;
58101;SDS011;52034;51.926;6.320;2022-12-07T01:40:38;12.37;;;9.57;;
58101;SDS011;52034;51.926;6.320;2022-12-07T01:41:39;11.57;;;9.10;;
58101;SDS011;52034;51.926;6.320;2022-12-07T01:42:42;14.73;;;9.60;;
58101;SDS011;52034;51.926;6.320;2022-12-07T01:46:17;11.55;;;9.77;;
58101;SDS011;52034;51.926;6.320;2022-12-07T01:47:17;13.07;;;9.50;;
58101;SDS011;52034;51.926;6.320;2022-12-07T01:48:19;14.80;;;10.10;;
58101;SDS011;52034;51.926;6.320;2022-12-07T01:50:26;13.25;;;10.27;;
58101;SDS011;52034;51.926;6.320;2022-12-07T01:51:28;14.63;;;10.40;;
58101;SDS011;52034;51.926;6.320;2022-12-07T01:52:30;15.85;;;10.75;;
58101;SDS011;52034;51.926;6.320;2022-12-07T01:53:33;15.00;;;10.38;;
58101;SDS011;52034;51.926;6.320;2022-12-07T01:54:36;13.05;;;10.20;;
58101;SDS011;52034;51.926;6.320;2022-12-07T01:55:38;13.55;;;10.50;;
58101;SDS011;52034;51.926;6.320;2022-12-07T01:56:42;14.43;;;9.93;;
58101;SDS011;52034;51.926;6.320;2022-12-07T01:57:49;12.70;;;10.40;;
58101;SDS011;52034;51.926;6.320;2022-12-07T01:58:53;11.63;;;10.07;;
58101;SDS011;52034;51.926;6.320;2022-12-07T01:59:56;12.60;;;9.63;;
58101;SDS011;52034;51.926;6.320;2022-12-07T02:00:57;13.52;;;10.50;;
58101;SDS011;52034;51.926;6.320;2022-12-07T02:01:58;15.70;;;10.77;;
58101;SDS011;52034;51.926;6.320;2022-12-07T02:03:18;13.47;;;10.67;;
58101;SDS011;52034;51.926;6.320;2022-12-07T02:04:24;11.10;;;9.98;;
58101;SDS011;52034;51.926;6.320;2022-12-07T02:05:25;12.43;;;9.83;;
58101;SDS011;52034;51.926;6.320;2022-12-07T02:06:26;15.63;;;10.43;;
58101;SDS011;52034;51.926;6.320;2022-12-07T02:07:27;19.50;;;10.67;;
58101;SDS011;52034;51.926;6.320;2022-12-07T02:09:28;15.75;;;10.25;;
58101;SDS011;52034;51.926;6.320;2022-12-07T02:10:30;13.10;;;10.60;;
58101;SDS011;52034;51.926;6.320;2022-12-07T02:11:31;11.77;;;10.05;;
58101;SDS011;52034;51.926;6.320;2022-12-07T02:12:32;15.00;;;10.70;;
58101;SDS011;52034;51.926;6.320;2022-12-07T02:13:33;13.60;;;9.90;;
58101;SDS011;52034;51.926;6.320;2022-12-07T02:14:36;14.18;;;10.05;;
58101;SDS011;52034;51.926;6.320;2022-12-07T02:17:01;14.43;;;10.07;;
58101;SDS011;52034;51.926;6.320;2022-12-07T02:18:25;13.07;;;9.90;;
58101;SDS011;52034;51.926;6.320;2022-12-07T02:19:39;14.23;;;10.02;;
58101;SDS011;52034;51.926;6.320;2022-12-07T02:22:14;13.55;;;10.45;;
58101;SDS011;52034;51.926;6.320;2022-12-07T02:24:45;14.20;;;10.80;;
58101;SDS011;52034;51.926;6.320;2022-12-07T02:26:01;12.90;;;9.98;;
58101;SDS011;52034;51.926;6.320;2022-12-07T02:30:13;15.85;;;11.40;;
58101;SDS011;52034;51.926;6.320;2022-12-07T02:31:17;15.10;;;11.20;;
58101;SDS011;52034;51.926;6.320;2022-12-07T02:32:23;13.73;;;10.90;;
58101;SDS011;52034;51.926;6.320;2022-12-07T02:33:28;15.70;;;10.57;;
58101;SDS011;52034;51.926;6.320;2022-12-07T02:34:43;14.85;;;11.02;;
58101;SDS011;52034;51.926;6.320;2022-12-07T02:36:02;13.02;;;11.63;;
58101;SDS011;52034;51.926;6.320;2022-12-07T02:37:09;14.32;;;10.85;;
58101;SDS011;52034;51.926;6.320;2022-12-07T02:38:20;17.23;;;11.70;;
58101;SDS011;52034;51.926;6.320;2022-12-07T02:39:41;15.70;;;10.90;;
58101;SDS011;52034;51.926;6.320;2022-12-07T02:40:57;12.32;;;10.98;;
58101;SDS011;52034;51.926;6.320;2022-12-07T02:42:09;14.07;;;10.57;;
58101;SDS011;52034;51.926;6.320;2022-12-07T02:43:34;15.18;;;11.60;;
58101;SDS011;52034;51.926;6.320;2022-12-07T02:44:39;16.23;;;10.85;;
58101;SDS011;52034;51.926;6.320;2022-12-07T02:45:40;16.88;;;11.88;;
58101;SDS011;52034;51.926;6.320;2022-12-07T02:46:42;20.50;;;12.23;;
58101;SDS011;52034;51.926;6.320;2022-12-07T02:47:48;14.57;;;10.73;;
58101;SDS011;52034;51.926;6.320;2022-12-07T02:48:51;16.80;;;11.75;;
58101;SDS011;52034;51.926;6.320;2022-12-07T02:49:53;15.95;;;11.73;;
58101;SDS011;52034;51.926;6.320;2022-12-07T02:50:54;18.17;;;11.70;;
58101;SDS011;52034;51.926;6.320;2022-12-07T02:51:55;13.55;;;10.90;;
58101;SDS011;52034;51.926;6.320;2022-12-07T02:52:55;16.13;;;12.57;;
58101;SDS011;52034;51.926;6.320;2022-12-07T02:53:56;14.97;;;11.30;;
58101;SDS011;52034;51.926;6.320;2022-12-07T02:54:56;17.80;;;11.40;;
58101;SDS011;52034;51.926;6.320;2022-12-07T02:55:56;13.47;;;10.83;;
58101;SDS011;52034;51.926;6.320;2022-12-07T02:58:27;16.33;;;11.20;;
58101;SDS011;52034;51.926;6.320;2022-12-07T03:00:00;20.10;;;11.10;;
58101;SDS011;52034;51.926;6.320;2022-12-07T03:01:47;15.75;;;10.48;;
58101;SDS011;52034;51.926;6.320;2022-12-07T03:07:00;17.67;;;11.50;;
58101;SDS011;52034;51.926;6.320;2022-12-07T03:12:12;17.20;;;10.88;;
58101;SDS011;52034;51.926;6.320;2022-12-07T03:13:22;15.52;;;10.95;;
58101;SDS011;52034;51.926;6.320;2022-12-07T03:14:24;13.00;;;10.93;;
58101;SDS011;52034;51.926;6.320;2022-12-07T03:15:35;16.70;;;11.63;;
58101;SDS011;52034;51.926;6.320;2022-12-07T03:16:41;18.20;;;11.07;;
58101;SDS011;52034;51.926;6.320;2022-12-07T03:17:47;18.00;;;11.57;;
58101;SDS011;52034;51.926;6.320;2022-12-07T03:18:52;15.45;;;11.30;;
58101;SDS011;52034;51.926;6.320;2022-12-07T03:20:09;13.68;;;11.85;;
58101;SDS011;52034;51.926;6.320;2022-12-07T03:21:15;14.07;;;11.15;;
58101;SDS011;52034;51.926;6.320;2022-12-07T03:22:19;17.77;;;11.85;;
58101;SDS011;52034;51.926;6.320;2022-12-07T03:23:20;17.75;;;11.50;;
58101;SDS011;52034;51.926;6.320;2022-12-07T03:24:25;15.43;;;11.18;;
58101;SDS011;52034;51.926;6.320;2022-12-07T03:25:28;14.35;;;11.18;;
58101;SDS011;52034;51.926;6.320;2022-12-07T03:26:34;18.38;;;11.65;;
58101;SDS011;52034;51.926;6.320;2022-12-07T03:27:54;20.25;;;12.32;;
58101;SDS011;52034;51.926;6.320;2022-12-07T03:29:01;15.02;;;11.35;;
58101;SDS011;52034;51.926;6.320;2022-12-07T03:30:10;17.15;;;12.50;;
58101;SDS011;52034;51.926;6.320;2022-12-07T03:31:33;17.98;;;12.07;;
58101;SDS011;52034;51.926;6.320;2022-12-07T03:32:42;16.95;;;11.38;;
58101;SDS011;52034;51.926;6.320;2022-12-07T03:33:47;15.50;;;11.93;;
58101;SDS011;52034;51.926;6.320;2022-12-07T03:36:07;15.70;;;11.95;;
58101;SDS011;52034;51.926;6.320;2022-12-07T03:38:38;16.83;;;11.77;;
58101;SDS011;52034;51.926;6.320;2022-12-07T03:39:46;13.82;;;11.32;;
58101;SDS011;52034;51.926;6.320;2022-12-07T03:41:19;15.38;;;11.75;;
58101;SDS011;52034;51.926;6.320;2022-12-07T03:42:23;18.00;;;11.30;;
58101;SDS011;52034;51.926;6.320;2022-12-07T03:43:24;16.80;;;11.20;;
58101;SDS011;52034;51.926;6.320;2022-12-07T03:44:25;15.53;;;10.93;;
58101;SDS011;52034;51.926;6.320;2022-12-07T03:45:30;13.20;;;11.13;;
58101;SDS011;52034;51.926;6.320;2022-12-07T03:49:55;14.80;;;11.43;;
58101;SDS011;52034;51.926;6.320;2022-12-07T03:52:10;15.45;;;10.88;;
58101;SDS011;52034;51.926;6.320;2022-12-07T03:53:19;18.05;;;10.73;;
58101;SDS011;52034;51.926;6.320;2022-12-07T03:54:26;14.27;;;10.98;;
58101;SDS011;52034;51.926;6.320;2022-12-07T03:55:34;16.23;;;11.02;;
58101;SDS011;52034;51.926;6.320;2022-12-07T03:56:38;16.52;;;10.27;;
58101;SDS011;52034;51.926;6.320;2022-12-07T03:58:41;13.95;;;10.27;;
58101;SDS011;52034;51.926;6.320;2022-12-07T03:59:43;16.52;;;11.05;;
58101;SDS011;52034;51.926;6.320;2022-12-07T04:00:44;21.27;;;10.57;;
58101;SDS011;52034;51.926;6.320;2022-12-07T04:01:45;17.65;;;10.68;;
58101;SDS011;52034;51.926;6.320;2022-12-07T04:02:52;20.05;;;11.05;;
58101;SDS011;52034;51.926;6.320;2022-12-07T04:03:53;14.88;;;10.23;;
58101;SDS011;52034;51.926;6.320;2022-12-07T04:04:54;15.63;;;10.30;;
58101;SDS011;52034;51.926;6.320;2022-12-07T04:05:55;13.48;;;10.65;;
58101;SDS011;52034;51.926;6.320;2022-12-07T04:06:56;15.53;;;10.13;;
58101;SDS011;52034;51.926;6.320;2022-12-07T04:07:57;17.65;;;10.13;;
58101;SDS011;52034;51.926;6.320;2022-12-07T04:08:57;15.23;;;9.73;;
58101;SDS011;52034;51.926;6.320;2022-12-07T04:09:57;13.20;;;9.20;;
58101;SDS011;52034;51.926;6.320;2022-12-07T04:10:58;10.93;;;9.60;;
58101;SDS011;52034;51.926;6.320;2022-12-07T04:11:58;15.73;;;10.30;;
58101;SDS011;52034;51.926;6.320;2022-12-07T04:12:58;14.93;;;10.03;;
58101;SDS011;52034;51.926;6.320;2022-12-07T04:13:59;14.73;;;9.60;;
58101;SDS011;52034;51.926;6.320;2022-12-07T04:15:18;15.70;;;9.57;;
58101;SDS011;52034;51.926;6.320;2022-12-07T04:16:18;14.83;;;9.17;;
58101;SDS011;52034;51.926;6.320;2022-12-07T04:17:18;13.57;;;9.57;;
58101;SDS011;52034;51.926;6.320;2022-12-07T04:18:19;19.13;;;10.33;;
58101;SDS011;52034;51.926;6.320;2022-12-07T04:19:20;18.90;;;9.50;;
58101;SDS011;52034;51.926;6.320;2022-12-07T04:20:22;13.95;;;9.88;;
58101;SDS011;52034;51.926;6.320;2022-12-07T04:21:23;15.90;;;9.70;;
58101;SDS011;52034;51.926;6.320;2022-12-07T04:22:23;13.77;;;9.63;;
58101;SDS011;52034;51.926;6.320;2022-12-07T04:23:24;13.90;;;9.70;;
58101;SDS011;52034;51.926;6.320;2022-12-07T04:24:24;14.33;;;9.80;;
58101;SDS011;52034;51.926;6.320;2022-12-07T04:25:25;14.02;;;9.18;;
58101;SDS011;52034;51.926;6.320;2022-12-07T04:26:25;12.13;;;9.40;;
58101;SDS011;52034;51.926;6.320;2022-12-07T04:27:26;13.57;;;10.05;;
58101;SDS011;52034;51.926;6.320;2022-12-07T04:28:26;12.77;;;9.23;;
58101;SDS011;52034;51.926;6.320;2022-12-07T04:29:27;15.30;;;9.67;;
58101;SDS011;52034;51.926;6.320;2022-12-07T04:30:27;18.45;;;9.85;;
58101;SDS011;52034;51.926;6.320;2022-12-07T04:31:28;14.80;;;9.47;;
58101;SDS011;52034;51.926;6.320;2022-12-07T04:32:28;14.90;;;9.23;;
58101;SDS011;52034;51.926;6.320;2022-12-07T04:33:28;13.67;;;9.17;;
58101;SDS011;52034;51.926;6.320;2022-12-07T04:34:29;14.10;;;9.17;;
58101;SDS011;52034;51.926;6.320;2022-12-07T04:35:29;15.40;;;9.30;;
58101;SDS011;52034;51.926;6.320;2022-12-07T04:36:30;12.23;;;8.63;;
58101;SDS011;52034;51.926;6.320;2022-12-07T04:37:30;15.15;;;8.98;;
58101;SDS011;52034;51.926;6.320;2022-12-07T04:38:31;15.80;;;8.97;;
58101;SDS011;52034;51.926;6.320;2022-12-07T04:39:31;13.67;;;8.93;;
58101;SDS011;52034;51.926;6.320;2022-12-07T04:40:33;17.85;;;8.85;;
58101;SDS011;52034;51.926;6.320;2022-12-07T04:41:34;14.38;;;8.52;;
58101;SDS011;52034;51.926;6.320;2022-12-07T04:42:34;11.73;;;8.27;;
58101;SDS011;52034;51.926;6.320;2022-12-07T04:43:35;13.13;;;8.50;;
58101;SDS011;52034;51.926;6.320;2022-12-07T04:44:36;13.90;;;8.55;;
58101;SDS011;52034;51.926;6.320;2022-12-07T04:45:36;14.23;;;8.30;;
58101;SDS011;52034;51.926;6.320;2022-12-07T04:46:36;12.93;;;8.60;;
58101;SDS011;52034;51.926;6.320;2022-12-07T04:47:37;13.50;;;8.80;;
58101;SDS011;52034;51.926;6.320;2022-12-07T04:48:37;11.77;;;8.60;;
58101;SDS011;52034;51.926;6.320;2022-12-07T04:49:37;13.77;;;8.47;;
58101;SDS011;52034;51.926;6.320;2022-12-07T04:50:38;13.17;;;8.20;;
58101;SDS011;52034;51.926;6.320;2022-12-07T04:51:38;12.73;;;8.43;;
58101;SDS011;52034;51.926;6.320;2022-12-07T04:52:39;12.68;;;8.02;;
58101;SDS011;52034;51.926;6.320;2022-12-07T04:53:39;12.50;;;9.13;;
58101;SDS011;52034;51.926;6.320;2022-12-07T04:54:40;14.17;;;9.17;;
58101;SDS011;52034;51.926;6.320;2022-12-07T04:55:40;18.43;;;8.57;;
58101;SDS011;52034;51.926;6.320;2022-12-07T04:56:41;15.13;;;8.77;;
58101;SDS011;52034;51.926;6.320;2022-12-07T04:57:41;14.97;;;8.70;;
58101;SDS011;52034;51.926;6.320;2022-12-07T04:58:42;12.17;;;8.47;;
58101;SDS011;52034;51.926;6.320;2022-12-07T04:59:43;14.40;;;8.43;;
58101;SDS011;52034;51.926;6.320;2022-12-07T05:00:44;16.97;;;8.40;;
58101;SDS011;52034;51.926;6.320;2022-12-07T05:01:44;10.50;;;8.17;;
58101;SDS011;52034;51.926;6.320;2022-12-07T05:02:45;16.10;;;7.80;;
58101;SDS011;52034;51.926;6.320;2022-12-07T05:03:45;13.00;;;8.67;;
58101;SDS011;52034;51.926;6.320;2022-12-07T05:04:45;10.93;;;7.77;;
58101;SDS011;52034;51.926;6.320;2022-12-07T05:05:46;13.03;;;8.50;;
58101;SDS011;52034;51.926;6.320;2022-12-07T05:06:46;14.07;;;8.47;;
58101;SDS011;52034;51.926;6.320;2022-12-07T05:07:46;10.87;;;8.27;;
58101;SDS011;52034;51.926;6.320;2022-12-07T05:08:47;11.20;;;8.27;;
58101;SDS011;52034;51.926;6.320;2022-12-07T05:09:47;11.27;;;8.33;;
58101;SDS011;52034;51.926;6.320;2022-12-07T05:10:48;16.03;;;8.63;;
58101;SDS011;52034;51.926;6.320;2022-12-07T05:11:49;12.50;;;8.48;;
58101;SDS011;52034;51.926;6.320;2022-12-07T05:12:49;8.97;;;8.00;;
58101;SDS011;52034;51.926;6.320;2022-12-07T05:13:50;12.37;;;8.97;;
58101;SDS011;52034;51.926;6.320;2022-12-07T05:14:50;16.63;;;9.00;;
58101;SDS011;52034;51.926;6.320;2022-12-07T05:15:50;12.37;;;8.20;;
58101;SDS011;52034;51.926;6.320;2022-12-07T05:16:51;10.93;;;8.77;;
58101;SDS011;52034;51.926;6.320;2022-12-07T05:17:53;10.68;;;8.63;;
58101;SDS011;52034;51.926;6.320;2022-12-07T05:18:53;12.13;;;8.63;;
58101;SDS011;52034;51.926;6.320;2022-12-07T05:19:54;14.10;;;8.63;;
58101;SDS011;52034;51.926;6.320;2022-12-07T05:20:54;14.17;;;8.60;;
58101;SDS011;52034;51.926;6.320;2022-12-07T05:21:54;13.77;;;8.70;;
58101;SDS011;52034;51.926;6.320;2022-12-07T05:22:55;14.53;;;8.70;;
58101;SDS011;52034;51.926;6.320;2022-12-07T05:23:55;11.47;;;8.00;;
58101;SDS011;52034;51.926;6.320;2022-12-07T05:24:56;13.97;;;7.37;;
58101;SDS011;52034;51.926;6.320;2022-12-07T05:25:56;10.70;;;7.77;;
58101;SDS011;52034;51.926;6.320;2022-12-07T05:26:56;13.33;;;7.70;;
58101;SDS011;52034;51.926;6.320;2022-12-07T05:27:57;11.10;;;7.83;;
58101;SDS011;52034;51.926;6.320;2022-12-07T05:28:57;12.50;;;7.93;;
58101;SDS011;52034;51.926;6.320;2022-12-07T05:29:58;11.20;;;7.70;;
58101;SDS011;52034;51.926;6.320;2022-12-07T05:30:58;9.87;;;7.80;;
58101;SDS011;52034;51.926;6.320;2022-12-07T05:31:58;10.53;;;7.83;;
58101;SDS011;52034;51.926;6.320;2022-12-07T05:32:59;10.80;;;7.50;;
58101;SDS011;52034;51.926;6.320;2022-12-07T05:33:59;9.20;;;7.50;;
58101;SDS011;52034;51.926;6.320;2022-12-07T05:34:59;11.83;;;7.43;;
58101;SDS011;52034;51.926;6.320;2022-12-07T05:36:00;11.67;;;8.70;;
58101;SDS011;52034;51.926;6.320;2022-12-07T05:37:05;10.15;;;7.70;;
58101;SDS011;52034;51.926;6.320;2022-12-07T05:38:05;12.93;;;8.10;;
58101;SDS011;52034;51.926;6.320;2022-12-07T05:39:06;11.30;;;8.60;;
58101;SDS011;52034;51.926;6.320;2022-12-07T05:40:07;10.35;;;7.75;;
58101;SDS011;52034;51.926;6.320;2022-12-07T05:41:08;16.00;;;9.05;;
58101;SDS011;52034;51.926;6.320;2022-12-07T05:42:32;12.15;;;8.30;;
58101;SDS011;52034;51.926;6.320;2022-12-07T05:43:33;12.03;;;8.37;;
58101;SDS011;52034;51.926;6.320;2022-12-07T05:44:33;11.50;;;8.17;;
58101;SDS011;52034;51.926;6.320;2022-12-07T05:45:34;12.10;;;7.70;;
58101;SDS011;52034;51.926;6.320;2022-12-07T05:46:34;12.30;;;8.17;;
58101;SDS011;52034;51.926;6.320;2022-12-07T05:47:34;12.30;;;7.80;;
58101;SDS011;52034;51.926;6.320;2022-12-07T05:48:35;12.52;;;8.18;;
58101;SDS011;52034;51.926;6.320;2022-12-07T05:49:36;10.25;;;7.78;;
58101;SDS011;52034;51.926;6.320;2022-12-07T05:50:37;10.13;;;8.03;;
58101;SDS011;52034;51.926;6.320;2022-12-07T05:51:37;8.37;;;7.53;;
58101;SDS011;52034;51.926;6.320;2022-12-07T05:52:37;10.00;;;7.50;;
58101;SDS011;52034;51.926;6.320;2022-12-07T05:53:38;13.20;;;8.27;;
58101;SDS011;52034;51.926;6.320;2022-12-07T05:54:38;11.03;;;8.10;;
58101;SDS011;52034;51.926;6.320;2022-12-07T05:55:38;10.33;;;8.30;;
58101;SDS011;52034;51.926;6.320;2022-12-07T05:56:39;11.40;;;7.97;;
58101;SDS011;52034;51.926;6.320;2022-12-07T05:57:39;9.93;;;7.73;;
58101;SDS011;52034;51.926;6.320;2022-12-07T05:59:00;9.35;;;7.80;;
58101;SDS011;52034;51.926;6.320;2022-12-07T06:00:19;11.02;;;8.57;;
58101;SDS011;52034;51.926;6.320;2022-12-07T06:01:19;11.97;;;7.50;;
58101;SDS011;52034;51.926;6.320;2022-12-07T06:02:20;8.40;;;7.27;;
58101;SDS011;52034;51.926;6.320;2022-12-07T06:03:20;14.00;;;8.00;;
58101;SDS011;52034;51.926;6.320;2022-12-07T06:04:21;13.13;;;7.67;;
58101;SDS011;52034;51.926;6.320;2022-12-07T06:06:23;9.77;;;7.20;;
58101;SDS011;52034;51.926;6.320;2022-12-07T06:07:23;12.40;;;7.60;;
58101;SDS011;52034;51.926;6.320;2022-12-07T06:08:23;11.73;;;7.77;;
58101;SDS011;52034;51.926;6.320;2022-12-07T06:09:25;10.07;;;6.83;;
58101;SDS011;52034;51.926;6.320;2022-12-07T06:10:26;14.15;;;7.95;;
58101;SDS011;52034;51.926;6.320;2022-12-07T06:11:26;8.70;;;6.67;;
58101;SDS011;52034;51.926;6.320;2022-12-07T06:12:45;11.23;;;7.25;;
58101;SDS011;52034;51.926;6.320;2022-12-07T06:13:46;9.30;;;6.93;;
58101;SDS011;52034;51.926;6.320;2022-12-07T06:14:46;11.17;;;6.97;;
58101;SDS011;52034;51.926;6.320;2022-12-07T06:15:47;11.90;;;6.80;;
58101;SDS011;52034;51.926;6.320;2022-12-07T06:16:47;11.33;;;7.60;;
58101;SDS011;52034;51.926;6.320;2022-12-07T06:17:47;10.80;;;7.33;;
58101;SDS011;52034;51.926;6.320;2022-12-07T06:18:48;8.50;;;6.93;;
58101;SDS011;52034;51.926;6.320;2022-12-07T06:19:48;9.50;;;7.17;;
58101;SDS011;52034;51.926;6.320;2022-12-07T06:20:49;12.13;;;7.23;;
58101;SDS011;52034;51.926;6.320;2022-12-07T06:21:49;14.77;;;7.40;;
58101;SDS011;52034;51.926;6.320;2022-12-07T06:22:49;14.50;;;7.47;;
58101;SDS011;52034;51.926;6.320;2022-12-07T06:23:50;10.63;;;7.43;;
58101;SDS011;52034;51.926;6.320;2022-12-07T06:24:50;9.03;;;7.30;;
58101;SDS011;52034;51.926;6.320;2022-12-07T06:25:50;12.30;;;7.40;;
58101;SDS011;52034;51.926;6.320;2022-12-07T06:26:51;12.10;;;7.30;;
58101;SDS011;52034;51.926;6.320;2022-12-07T06:27:51;9.20;;;6.67;;
58101;SDS011;52034;51.926;6.320;2022-12-07T06:28:52;10.87;;;6.70;;
58101;SDS011;52034;51.926;6.320;2022-12-07T06:29:52;15.37;;;6.80;;
58101;SDS011;52034;51.926;6.320;2022-12-07T06:30:59;13.50;;;6.73;;
58101;SDS011;52034;51.926;6.320;2022-12-07T06:32:00;9.00;;;6.82;;
58101;SDS011;52034;51.926;6.320;2022-12-07T06:33:00;10.90;;;7.20;;
58101;SDS011;52034;51.926;6.320;2022-12-07T06:34:02;11.67;;;6.90;;
58101;SDS011;52034;51.926;6.320;2022-12-07T06:35:05;8.30;;;7.05;;
58101;SDS011;52034;51.926;6.320;2022-12-07T06:36:05;8.83;;;6.93;;
58101;SDS011;52034;51.926;6.320;2022-12-07T06:37:06;9.03;;;6.47;;
58101;SDS011;52034;51.926;6.320;2022-12-07T06:38:06;10.57;;;6.60;;
58101;SDS011;52034;51.926;6.320;2022-12-07T06:39:07;10.47;;;7.07;;
58101;SDS011;52034;51.926;6.320;2022-12-07T06:40:09;13.95;;;7.72;;
58101;SDS011;52034;51.926;6.320;2022-12-07T06:41:09;9.88;;;7.00;;
58101;SDS011;52034;51.926;6.320;2022-12-07T06:42:10;11.30;;;7.03;;